sensor_id;sensor_type;location;lat;lon;timestamp;P1;durP1;ratioP1;P2;durP2;ratioP2
77748;SDS011;66938;52.084;5.228;2023-02-24T00:00:59;17.3;;;6.6;;
77748;SDS011;66938;52.084;5.228;2023-02-24T00:04:12;19.11;;;6.7;;
77748;SDS011;66938;52.084;5.228;2023-02-24T00:05:48;20.5;;;6.7;;
77748;SDS011;66938;52.084;5.228;2023-02-24T00:07:24;18.11;;;6.5;;
77748;SDS011;66938;52.084;5.228;2023-02-24T00:09:01;17.2;;;6.4;;
77748;SDS011;66938;52.084;5.228;2023-02-24T00:12:14;19.5;;;6.7;;
77748;SDS011;66938;52.084;5.228;2023-02-24T00:13:51;17.5;;;6.7;;
77748;SDS011;66938;52.084;5.228;2023-02-24T00:15:27;16.4;;;6.4;;
77748;SDS011;66938;52.084;5.228;2023-02-24T00:18:41;16.9;;;6.2;;
77748;SDS011;66938;52.084;5.228;2023-02-24T00:20:19;17.91;;;6.5;;
77748;SDS011;66938;52.084;5.228;2023-02-24T00:21:56;20.0;;;6.6;;
77748;SDS011;66938;52.084;5.228;2023-02-24T00:25:09;15.2;;;6.3;;
77748;SDS011;66938;52.084;5.228;2023-02-24T00:26:49;18.41;;;6.7;;
77748;SDS011;66938;52.084;5.228;2023-02-24T00:28:28;18.5;;;6.5;;
77748;SDS011;66938;52.084;5.228;2023-02-24T00:30:05;17.41;;;6.3;;
77748;SDS011;66938;52.084;5.228;2023-02-24T00:33:19;18.8;;;6.5;;
77748;SDS011;66938;52.084;5.228;2023-02-24T00:34:55;18.7;;;6.8;;
77748;SDS011;66938;52.084;5.228;2023-02-24T00:36:31;18.41;;;6.7;;
77748;SDS011;66938;52.084;5.228;2023-02-24T00:39:44;14.6;;;6.1;;
77748;SDS011;66938;52.084;5.228;2023-02-24T00:41:21;15.8;;;6.1;;
77748;SDS011;66938;52.084;5.228;2023-02-24T00:42:59;20.6;;;6.4;;
77748;SDS011;66938;52.084;5.228;2023-02-24T00:44:37;17.41;;;6.6;;
77748;SDS011;66938;52.084;5.228;2023-02-24T00:47:53;18.0;;;6.6;;
77748;SDS011;66938;52.084;5.228;2023-02-24T00:49:31;19.5;;;6.9;;
77748;SDS011;66938;52.084;5.228;2023-02-24T00:51:08;18.61;;;6.5;;
77748;SDS011;66938;52.084;5.228;2023-02-24T00:54:23;14.8;;;5.9;;
77748;SDS011;66938;52.084;5.228;2023-02-24T00:56:01;16.7;;;6.1;;
77748;SDS011;66938;52.084;5.228;2023-02-24T00:57:36;15.9;;;6.1;;
77748;SDS011;66938;52.084;5.228;2023-02-24T00:59:13;15.3;;;6.3;;
77748;SDS011;66938;52.084;5.228;2023-02-24T01:02:28;17.2;;;6.1;;
77748;SDS011;66938;52.084;5.228;2023-02-24T01:05:42;16.61;;;6.4;;
77748;SDS011;66938;52.084;5.228;2023-02-24T01:08:55;18.2;;;6.4;;
77748;SDS011;66938;52.084;5.228;2023-02-24T01:10:33;15.1;;;5.9;;
77748;SDS011;66938;52.084;5.228;2023-02-24T01:12:10;17.41;;;6.1;;
77748;SDS011;66938;52.084;5.228;2023-02-24T01:15:24;19.11;;;6.7;;
77748;SDS011;66938;52.084;5.228;2023-02-24T01:17:00;15.8;;;6.0;;
77748;SDS011;66938;52.084;5.228;2023-02-24T01:18:38;15.1;;;6.0;;
77748;SDS011;66938;52.084;5.228;2023-02-24T01:20:16;15.6;;;5.9;;
77748;SDS011;66938;52.084;5.228;2023-02-24T01:23:29;15.3;;;6.2;;
77748;SDS011;66938;52.084;5.228;2023-02-24T01:25:05;17.2;;;6.2;;
77748;SDS011;66938;52.084;5.228;2023-02-24T01:26:42;17.11;;;6.5;;
77748;SDS011;66938;52.084;5.228;2023-02-24T01:29:55;19.8;;;6.4;;
77748;SDS011;66938;52.084;5.228;2023-02-24T01:31:31;17.11;;;6.4;;
77748;SDS011;66938;52.084;5.228;2023-02-24T01:33:07;15.3;;;5.8;;
77748;SDS011;66938;52.084;5.228;2023-02-24T01:36:22;17.3;;;6.2;;
77748;SDS011;66938;52.084;5.228;2023-02-24T01:38:00;16.3;;;5.9;;
77748;SDS011;66938;52.084;5.228;2023-02-24T01:39:36;15.0;;;6.0;;
77748;SDS011;66938;52.084;5.228;2023-02-24T01:41:13;18.11;;;6.5;;
77748;SDS011;66938;52.084;5.228;2023-02-24T01:45:32;15.1;;;5.9;;
77748;SDS011;66938;52.084;5.228;2023-02-24T01:47:10;15.8;;;6.2;;
77748;SDS011;66938;52.084;5.228;2023-02-24T01:48:46;13.7;;;5.9;;
77748;SDS011;66938;52.084;5.228;2023-02-24T01:50:23;18.7;;;6.7;;
77748;SDS011;66938;52.084;5.228;2023-02-24T01:52:05;20.11;;;6.4;;
77748;SDS011;66938;52.084;5.228;2023-02-24T01:57:03;15.6;;;6.4;;
77748;SDS011;66938;52.084;5.228;2023-02-24T01:58:41;15.6;;;6.4;;
77748;SDS011;66938;52.084;5.228;2023-02-24T02:00:19;15.1;;;6.4;;
77748;SDS011;66938;52.084;5.228;2023-02-24T02:03:37;18.5;;;6.8;;
77748;SDS011;66938;52.084;5.228;2023-02-24T02:05:16;16.61;;;6.2;;
77748;SDS011;66938;52.084;5.228;2023-02-24T02:06:53;17.2;;;6.5;;
77748;SDS011;66938;52.084;5.228;2023-02-24T02:08:30;17.91;;;6.7;;
77748;SDS011;66938;52.084;5.228;2023-02-24T02:11:47;15.2;;;6.6;;
77748;SDS011;66938;52.084;5.228;2023-02-24T02:13:24;17.41;;;7.0;;
77748;SDS011;66938;52.084;5.228;2023-02-24T02:15:03;15.8;;;6.2;;
77748;SDS011;66938;52.084;5.228;2023-02-24T02:16:46;14.1;;;6.0;;
77748;SDS011;66938;52.084;5.228;2023-02-24T02:20:33;14.8;;;6.3;;
77748;SDS011;66938;52.084;5.228;2023-02-24T02:23:12;15.7;;;6.4;;
77748;SDS011;66938;52.084;5.228;2023-02-24T02:25:15;16.0;;;6.5;;
77748;SDS011;66938;52.084;5.228;2023-02-24T02:30:38;15.8;;;6.4;;
77748;SDS011;66938;52.084;5.228;2023-02-24T02:33:19;14.9;;;6.3;;
77748;SDS011;66938;52.084;5.228;2023-02-24T02:36:28;19.61;;;6.8;;
77748;SDS011;66938;52.084;5.228;2023-02-24T02:38:12;16.3;;;6.3;;
77748;SDS011;66938;52.084;5.228;2023-02-24T02:39:57;15.0;;;6.4;;
77748;SDS011;66938;52.084;5.228;2023-02-24T02:41:45;17.0;;;6.6;;
77748;SDS011;66938;52.084;5.228;2023-02-24T02:45:13;15.1;;;6.4;;
77748;SDS011;66938;52.084;5.228;2023-02-24T02:46:58;17.8;;;7.0;;
77748;SDS011;66938;52.084;5.228;2023-02-24T02:48:42;17.2;;;6.9;;
77748;SDS011;66938;52.084;5.228;2023-02-24T02:50:26;17.5;;;7.2;;
77748;SDS011;66938;52.084;5.228;2023-02-24T02:52:12;18.61;;;7.4;;
77748;SDS011;66938;52.084;5.228;2023-02-24T02:55:37;17.41;;;6.9;;
77748;SDS011;66938;52.084;5.228;2023-02-24T02:57:20;17.2;;;6.8;;
77748;SDS011;66938;52.084;5.228;2023-02-24T02:59:00;19.3;;;7.0;;
77748;SDS011;66938;52.084;5.228;2023-02-24T03:00:38;16.0;;;6.5;;
77748;SDS011;66938;52.084;5.228;2023-02-24T03:04:02;16.4;;;6.9;;
77748;SDS011;66938;52.084;5.228;2023-02-24T03:05:43;20.8;;;7.0;;
77748;SDS011;66938;52.084;5.228;2023-02-24T03:07:25;15.7;;;6.8;;
77748;SDS011;66938;52.084;5.228;2023-02-24T03:09:09;13.9;;;6.1;;
77748;SDS011;66938;52.084;5.228;2023-02-24T03:12:28;14.8;;;6.7;;
77748;SDS011;66938;52.084;5.228;2023-02-24T03:14:07;20.2;;;7.1;;
77748;SDS011;66938;52.084;5.228;2023-02-24T03:15:49;18.61;;;7.7;;
77748;SDS011;66938;52.084;5.228;2023-02-24T03:17:29;16.8;;;6.6;;
77748;SDS011;66938;52.084;5.228;2023-02-24T03:20:53;19.61;;;6.7;;
77748;SDS011;66938;52.084;5.228;2023-02-24T03:22:38;15.3;;;6.6;;
77748;SDS011;66938;52.084;5.228;2023-02-24T03:24:20;17.3;;;6.6;;
77748;SDS011;66938;52.084;5.228;2023-02-24T03:25:57;16.9;;;6.4;;
77748;SDS011;66938;52.084;5.228;2023-02-24T03:29:25;17.7;;;6.7;;
77748;SDS011;66938;52.084;5.228;2023-02-24T03:31:09;19.5;;;6.8;;
77748;SDS011;66938;52.084;5.228;2023-02-24T03:32:54;18.41;;;6.9;;
77748;SDS011;66938;52.084;5.228;2023-02-24T03:34:39;20.11;;;6.9;;
77748;SDS011;66938;52.084;5.228;2023-02-24T03:36:24;16.9;;;6.6;;
77748;SDS011;66938;52.084;5.228;2023-02-24T03:39:38;18.7;;;6.8;;
77748;SDS011;66938;52.084;5.228;2023-02-24T03:41:15;16.8;;;6.4;;
77748;SDS011;66938;52.084;5.228;2023-02-24T03:42:53;16.9;;;6.3;;
77748;SDS011;66938;52.084;5.228;2023-02-24T03:44:35;16.3;;;6.5;;
77748;SDS011;66938;52.084;5.228;2023-02-24T03:47:50;19.91;;;6.8;;
77748;SDS011;66938;52.084;5.228;2023-02-24T03:49:26;18.41;;;6.9;;
77748;SDS011;66938;52.084;5.228;2023-02-24T03:51:03;21.2;;;6.5;;
77748;SDS011;66938;52.084;5.228;2023-02-24T03:54:30;16.0;;;6.2;;
77748;SDS011;66938;52.084;5.228;2023-02-24T03:56:27;18.7;;;6.3;;
77748;SDS011;66938;52.084;5.228;2023-02-24T03:58:16;15.8;;;5.9;;
77748;SDS011;66938;52.084;5.228;2023-02-24T04:00:02;16.61;;;5.9;;
77748;SDS011;66938;52.084;5.228;2023-02-24T04:01:48;15.8;;;5.8;;
77748;SDS011;66938;52.084;5.228;2023-02-24T04:03:30;16.9;;;6.4;;
77748;SDS011;66938;52.084;5.228;2023-02-24T04:06:55;17.8;;;6.0;;
77748;SDS011;66938;52.084;5.228;2023-02-24T04:08:38;19.3;;;6.0;;
77748;SDS011;66938;52.084;5.228;2023-02-24T04:10:20;19.3;;;6.0;;
77748;SDS011;66938;52.084;5.228;2023-02-24T04:12:03;16.5;;;6.2;;
77748;SDS011;66938;52.084;5.228;2023-02-24T04:13:45;16.61;;;5.8;;
77748;SDS011;66938;52.084;5.228;2023-02-24T04:17:11;16.4;;;5.7;;
77748;SDS011;66938;52.084;5.228;2023-02-24T04:18:55;18.91;;;5.8;;
77748;SDS011;66938;52.084;5.228;2023-02-24T04:20:35;16.0;;;5.7;;
77748;SDS011;66938;52.084;5.228;2023-02-24T04:22:14;15.1;;;6.0;;
77748;SDS011;66938;52.084;5.228;2023-02-24T04:25:34;16.3;;;5.8;;
77748;SDS011;66938;52.084;5.228;2023-02-24T04:27:12;15.1;;;5.6;;
77748;SDS011;66938;52.084;5.228;2023-02-24T04:28:50;17.8;;;6.1;;
77748;SDS011;66938;52.084;5.228;2023-02-24T04:30:30;17.8;;;6.0;;
77748;SDS011;66938;52.084;5.228;2023-02-24T04:33:51;17.8;;;6.0;;
77748;SDS011;66938;52.084;5.228;2023-02-24T04:35:27;15.3;;;5.6;;
77748;SDS011;66938;52.084;5.228;2023-02-24T04:37:03;15.4;;;5.7;;
77748;SDS011;66938;52.084;5.228;2023-02-24T04:40:16;16.9;;;6.2;;
77748;SDS011;66938;52.084;5.228;2023-02-24T04:41:54;15.5;;;5.5;;
77748;SDS011;66938;52.084;5.228;2023-02-24T04:43:30;17.91;;;5.7;;
77748;SDS011;66938;52.084;5.228;2023-02-24T04:45:07;16.8;;;5.6;;
77748;SDS011;66938;52.084;5.228;2023-02-24T04:48:21;18.0;;;5.4;;
77748;SDS011;66938;52.084;5.228;2023-02-24T04:49:57;15.1;;;5.8;;
77748;SDS011;66938;52.084;5.228;2023-02-24T04:51:34;15.1;;;5.3;;
77748;SDS011;66938;52.084;5.228;2023-02-24T04:54:49;16.7;;;5.8;;
77748;SDS011;66938;52.084;5.228;2023-02-24T04:56:25;18.61;;;5.6;;
77748;SDS011;66938;52.084;5.228;2023-02-24T04:58:01;14.5;;;4.91;;
77748;SDS011;66938;52.084;5.228;2023-02-24T05:01:14;17.2;;;5.5;;
77748;SDS011;66938;52.084;5.228;2023-02-24T05:02:51;18.8;;;5.2;;
77748;SDS011;66938;52.084;5.228;2023-02-24T05:06:12;17.2;;;5.11;;
77748;SDS011;66938;52.084;5.228;2023-02-24T05:09:26;14.6;;;5.0;;
77748;SDS011;66938;52.084;5.228;2023-02-24T05:11:02;14.9;;;5.0;;
77748;SDS011;66938;52.084;5.228;2023-02-24T05:12:38;15.0;;;5.3;;
77748;SDS011;66938;52.084;5.228;2023-02-24T05:15:54;17.0;;;4.91;;
77748;SDS011;66938;52.084;5.228;2023-02-24T05:17:33;13.6;;;4.8;;
77748;SDS011;66938;52.084;5.228;2023-02-24T05:19:10;14.9;;;4.61;;
77748;SDS011;66938;52.084;5.228;2023-02-24T05:20:50;14.2;;;4.5;;
77748;SDS011;66938;52.084;5.228;2023-02-24T05:24:04;14.2;;;4.41;;
77748;SDS011;66938;52.084;5.228;2023-02-24T05:25:40;15.7;;;4.7;;
77748;SDS011;66938;52.084;5.228;2023-02-24T05:27:16;13.9;;;4.3;;
77748;SDS011;66938;52.084;5.228;2023-02-24T05:30:30;13.3;;;4.41;;
77748;SDS011;66938;52.084;5.228;2023-02-24T05:32:08;13.0;;;4.41;;
77748;SDS011;66938;52.084;5.228;2023-02-24T05:33:45;13.3;;;4.3;;
77748;SDS011;66938;52.084;5.228;2023-02-24T05:35:24;13.4;;;4.3;;
77748;SDS011;66938;52.084;5.228;2023-02-24T05:38:38;13.7;;;4.1;;
77748;SDS011;66938;52.084;5.228;2023-02-24T05:40:14;18.11;;;4.41;;
77748;SDS011;66938;52.084;5.228;2023-02-24T05:41:50;15.8;;;4.3;;
77748;SDS011;66938;52.084;5.228;2023-02-24T05:45:06;13.2;;;3.8;;
77748;SDS011;66938;52.084;5.228;2023-02-24T05:46:44;13.2;;;3.8;;
77748;SDS011;66938;52.084;5.228;2023-02-24T05:48:21;14.7;;;4.3;;
77748;SDS011;66938;52.084;5.228;2023-02-24T05:51:32;11.7;;;3.8;;
77748;SDS011;66938;52.084;5.228;2023-02-24T05:53:09;13.1;;;4.0;;
77748;SDS011;66938;52.084;5.228;2023-02-24T05:54:45;13.1;;;4.41;;
77748;SDS011;66938;52.084;5.228;2023-02-24T05:56:21;12.6;;;4.3;;
77748;SDS011;66938;52.084;5.228;2023-02-24T05:59:34;14.1;;;4.2;;
77748;SDS011;66938;52.084;5.228;2023-02-24T06:01:10;13.5;;;4.3;;
77748;SDS011;66938;52.084;5.228;2023-02-24T06:02:47;10.9;;;3.8;;
77748;SDS011;66938;52.084;5.228;2023-02-24T06:05:59;10.9;;;3.9;;
77748;SDS011;66938;52.084;5.228;2023-02-24T06:07:36;12.3;;;4.0;;
77748;SDS011;66938;52.084;5.228;2023-02-24T06:09:12;12.2;;;3.9;;
77748;SDS011;66938;52.084;5.228;2023-02-24T06:12:25;11.7;;;3.6;;
77748;SDS011;66938;52.084;5.228;2023-02-24T06:14:04;11.3;;;3.8;;
77748;SDS011;66938;52.084;5.228;2023-02-24T06:15:40;11.3;;;3.7;;
77748;SDS011;66938;52.084;5.228;2023-02-24T06:17:16;13.7;;;4.0;;
77748;SDS011;66938;52.084;5.228;2023-02-24T06:20:29;14.7;;;3.5;;
77748;SDS011;66938;52.084;5.228;2023-02-24T06:22:06;14.9;;;4.2;;
77748;SDS011;66938;52.084;5.228;2023-02-24T06:23:41;12.4;;;3.7;;
77748;SDS011;66938;52.084;5.228;2023-02-24T06:26:55;12.5;;;3.6;;
77748;SDS011;66938;52.084;5.228;2023-02-24T06:28:32;12.2;;;3.7;;
77748;SDS011;66938;52.084;5.228;2023-02-24T06:30:09;11.5;;;3.6;;
77748;SDS011;66938;52.084;5.228;2023-02-24T06:33:22;12.4;;;3.3;;
77748;SDS011;66938;52.084;5.228;2023-02-24T06:34:58;10.4;;;3.7;;
77748;SDS011;66938;52.084;5.228;2023-02-24T06:36:34;10.8;;;3.7;;
77748;SDS011;66938;52.084;5.228;2023-02-24T06:38:11;13.2;;;3.7;;
77748;SDS011;66938;52.084;5.228;2023-02-24T06:41:24;11.9;;;3.7;;
77748;SDS011;66938;52.084;5.228;2023-02-24T06:43:00;9.31;;;3.1;;
77748;SDS011;66938;52.084;5.228;2023-02-24T06:44:36;13.5;;;3.5;;
77748;SDS011;66938;52.084;5.228;2023-02-24T06:47:51;11.5;;;3.9;;
77748;SDS011;66938;52.084;5.228;2023-02-24T06:49:27;13.5;;;3.9;;
77748;SDS011;66938;52.084;5.228;2023-02-24T06:51:05;10.0;;;3.4;;
77748;SDS011;66938;52.084;5.228;2023-02-24T06:52:48;9.6;;;3.6;;
77748;SDS011;66938;52.084;5.228;2023-02-24T06:56:04;10.9;;;3.8;;
77748;SDS011;66938;52.084;5.228;2023-02-24T06:57:41;10.4;;;4.0;;
77748;SDS011;66938;52.084;5.228;2023-02-24T06:59:17;13.5;;;4.2;;
77748;SDS011;66938;52.084;5.228;2023-02-24T07:02:29;9.6;;;3.7;;
77748;SDS011;66938;52.084;5.228;2023-02-24T07:04:05;13.3;;;4.1;;
77748;SDS011;66938;52.084;5.228;2023-02-24T07:05:43;11.8;;;4.0;;
77748;SDS011;66938;52.084;5.228;2023-02-24T07:08:57;12.4;;;4.2;;
77748;SDS011;66938;52.084;5.228;2023-02-24T07:10:34;12.5;;;4.0;;
77748;SDS011;66938;52.084;5.228;2023-02-24T07:12:10;11.9;;;3.9;;
77748;SDS011;66938;52.084;5.228;2023-02-24T07:13:46;12.3;;;4.1;;
77748;SDS011;66938;52.084;5.228;2023-02-24T07:16:59;11.1;;;4.1;;
77748;SDS011;66938;52.084;5.228;2023-02-24T07:18:36;11.0;;;4.2;;
77748;SDS011;66938;52.084;5.228;2023-02-24T07:20:14;14.1;;;4.0;;
77748;SDS011;66938;52.084;5.228;2023-02-24T07:23:31;10.6;;;3.7;;
77748;SDS011;66938;52.084;5.228;2023-02-24T07:25:07;14.3;;;4.61;;
77748;SDS011;66938;52.084;5.228;2023-02-24T07:26:43;10.9;;;3.9;;
77748;SDS011;66938;52.084;5.228;2023-02-24T07:28:19;10.8;;;4.0;;
77748;SDS011;66938;52.084;5.228;2023-02-24T07:31:31;12.1;;;4.0;;
77748;SDS011;66938;52.084;5.228;2023-02-24T07:33:07;11.2;;;4.2;;
77748;SDS011;66938;52.084;5.228;2023-02-24T07:34:43;13.7;;;4.3;;
77748;SDS011;66938;52.084;5.228;2023-02-24T07:37:56;11.9;;;3.7;;
77748;SDS011;66938;52.084;5.228;2023-02-24T07:39:33;12.9;;;4.1;;
77748;SDS011;66938;52.084;5.228;2023-02-24T07:41:10;12.4;;;4.2;;
77748;SDS011;66938;52.084;5.228;2023-02-24T07:44:24;8.9;;;3.7;;
77748;SDS011;66938;52.084;5.228;2023-02-24T07:46:05;9.71;;;3.8;;
77748;SDS011;66938;52.084;5.228;2023-02-24T07:47:42;12.2;;;3.8;;
77748;SDS011;66938;52.084;5.228;2023-02-24T07:49:19;12.1;;;4.1;;
77748;SDS011;66938;52.084;5.228;2023-02-24T07:52:33;11.1;;;3.8;;
77748;SDS011;66938;52.084;5.228;2023-02-24T07:54:09;13.0;;;4.5;;
77748;SDS011;66938;52.084;5.228;2023-02-24T07:55:45;13.7;;;4.1;;
77748;SDS011;66938;52.084;5.228;2023-02-24T07:58:59;12.2;;;4.2;;
77748;SDS011;66938;52.084;5.228;2023-02-24T08:00:37;12.8;;;4.41;;
77748;SDS011;66938;52.084;5.228;2023-02-24T08:02:13;13.8;;;4.1;;
77748;SDS011;66938;52.084;5.228;2023-02-24T08:03:51;15.9;;;4.7;;
77748;SDS011;66938;52.084;5.228;2023-02-24T08:07:04;10.8;;;4.7;;
77748;SDS011;66938;52.084;5.228;2023-02-24T08:08:40;14.3;;;4.41;;
77748;SDS011;66938;52.084;5.228;2023-02-24T08:10:18;13.0;;;4.2;;
77748;SDS011;66938;52.084;5.228;2023-02-24T08:13:31;11.8;;;3.8;;
77748;SDS011;66938;52.084;5.228;2023-02-24T08:15:08;12.9;;;4.1;;
77748;SDS011;66938;52.084;5.228;2023-02-24T08:16:46;12.6;;;4.2;;
77748;SDS011;66938;52.084;5.228;2023-02-24T08:20:01;11.5;;;4.0;;
77748;SDS011;66938;52.084;5.228;2023-02-24T08:21:37;15.1;;;4.5;;
77748;SDS011;66938;52.084;5.228;2023-02-24T08:23:14;12.2;;;4.1;;
77748;SDS011;66938;52.084;5.228;2023-02-24T08:24:51;12.9;;;4.41;;
77748;SDS011;66938;52.084;5.228;2023-02-24T08:28:06;14.3;;;4.5;;
77748;SDS011;66938;52.084;5.228;2023-02-24T08:29:44;14.9;;;4.91;;
77748;SDS011;66938;52.084;5.228;2023-02-24T08:31:24;14.1;;;4.7;;
77748;SDS011;66938;52.084;5.228;2023-02-24T08:34:36;15.7;;;4.8;;
77748;SDS011;66938;52.084;5.228;2023-02-24T08:36:14;14.7;;;4.7;;
77748;SDS011;66938;52.084;5.228;2023-02-24T08:37:52;13.1;;;5.0;;
77748;SDS011;66938;52.084;5.228;2023-02-24T08:39:29;15.7;;;4.8;;
77748;SDS011;66938;52.084;5.228;2023-02-24T08:42:48;12.9;;;4.5;;
77748;SDS011;66938;52.084;5.228;2023-02-24T08:44:24;13.2;;;4.3;;
77748;SDS011;66938;52.084;5.228;2023-02-24T08:46:02;12.1;;;4.5;;
77748;SDS011;66938;52.084;5.228;2023-02-24T08:47:48;13.9;;;4.5;;
77748;SDS011;66938;52.084;5.228;2023-02-24T08:51:01;13.9;;;4.91;;
77748;SDS011;66938;52.084;5.228;2023-02-24T08:52:41;12.5;;;4.8;;
77748;SDS011;66938;52.084;5.228;2023-02-24T08:54:19;15.6;;;4.7;;
77748;SDS011;66938;52.084;5.228;2023-02-24T08:57:35;13.7;;;4.8;;
77748;SDS011;66938;52.084;5.228;2023-02-24T08:59:12;13.7;;;4.8;;
77748;SDS011;66938;52.084;5.228;2023-02-24T09:00:49;14.2;;;5.0;;
77748;SDS011;66938;52.084;5.228;2023-02-24T09:02:25;13.8;;;4.8;;
77748;SDS011;66938;52.084;5.228;2023-02-24T09:05:41;15.6;;;5.3;;
77748;SDS011;66938;52.084;5.228;2023-02-24T09:07:18;13.7;;;4.8;;
77748;SDS011;66938;52.084;5.228;2023-02-24T09:08:57;16.5;;;5.4;;
77748;SDS011;66938;52.084;5.228;2023-02-24T09:12:10;15.5;;;4.91;;
77748;SDS011;66938;52.084;5.228;2023-02-24T09:13:48;15.9;;;4.91;;
77748;SDS011;66938;52.084;5.228;2023-02-24T09:15:24;15.3;;;5.11;;
77748;SDS011;66938;52.084;5.228;2023-02-24T09:18:40;15.7;;;5.4;;
77748;SDS011;66938;52.084;5.228;2023-02-24T09:20:17;15.4;;;5.11;;
77748;SDS011;66938;52.084;5.228;2023-02-24T09:21:55;15.5;;;5.2;;
77748;SDS011;66938;52.084;5.228;2023-02-24T09:23:31;16.11;;;5.4;;
77748;SDS011;66938;52.084;5.228;2023-02-24T09:26:48;17.3;;;5.7;;
77748;SDS011;66938;52.084;5.228;2023-02-24T09:28:25;14.5;;;5.2;;
77748;SDS011;66938;52.084;5.228;2023-02-24T09:30:03;14.4;;;5.11;;
77748;SDS011;66938;52.084;5.228;2023-02-24T09:33:17;16.9;;;5.4;;
77748;SDS011;66938;52.084;5.228;2023-02-24T09:34:55;16.8;;;5.6;;
77748;SDS011;66938;52.084;5.228;2023-02-24T09:36:31;17.11;;;5.8;;
77748;SDS011;66938;52.084;5.228;2023-02-24T09:38:07;14.2;;;5.4;;
77748;SDS011;66938;52.084;5.228;2023-02-24T09:41:22;16.3;;;6.0;;
77748;SDS011;66938;52.084;5.228;2023-02-24T09:43:03;17.61;;;5.8;;
77748;SDS011;66938;52.084;5.228;2023-02-24T09:44:39;15.8;;;5.5;;
77748;SDS011;66938;52.084;5.228;2023-02-24T09:47:55;18.8;;;6.0;;
77748;SDS011;66938;52.084;5.228;2023-02-24T09:49:32;16.2;;;6.0;;
77748;SDS011;66938;52.084;5.228;2023-02-24T09:51:18;17.91;;;5.5;;
77748;SDS011;66938;52.084;5.228;2023-02-24T09:52:57;17.3;;;5.8;;
77748;SDS011;66938;52.084;5.228;2023-02-24T09:56:15;16.8;;;5.8;;
77748;SDS011;66938;52.084;5.228;2023-02-24T09:57:57;19.91;;;6.1;;
77748;SDS011;66938;52.084;5.228;2023-02-24T09:59:43;19.61;;;6.3;;
77748;SDS011;66938;52.084;5.228;2023-02-24T10:01:30;23.6;;;6.8;;
77748;SDS011;66938;52.084;5.228;2023-02-24T10:03:15;18.0;;;6.1;;
77748;SDS011;66938;52.084;5.228;2023-02-24T10:06:43;19.41;;;6.0;;
77748;SDS011;66938;52.084;5.228;2023-02-24T10:08:25;20.5;;;6.5;;
77748;SDS011;66938;52.084;5.228;2023-02-24T10:10:10;19.5;;;6.4;;
77748;SDS011;66938;52.084;5.228;2023-02-24T10:11:52;19.11;;;6.2;;
77748;SDS011;66938;52.084;5.228;2023-02-24T10:15:11;19.91;;;6.6;;
77748;SDS011;66938;52.084;5.228;2023-02-24T10:18:30;22.7;;;7.3;;
77748;SDS011;66938;52.084;5.228;2023-02-24T10:20:14;19.7;;;6.1;;
77748;SDS011;66938;52.084;5.228;2023-02-24T10:21:55;19.11;;;6.2;;
77748;SDS011;66938;52.084;5.228;2023-02-24T10:25:37;20.7;;;7.1;;
77748;SDS011;66938;52.084;5.228;2023-02-24T10:27:21;16.61;;;6.3;;
77748;SDS011;66938;52.084;5.228;2023-02-24T10:29:05;19.3;;;6.3;;
77748;SDS011;66938;52.084;5.228;2023-02-24T10:30:51;19.91;;;6.8;;
77748;SDS011;66938;52.084;5.228;2023-02-24T10:32:39;16.0;;;6.4;;
77748;SDS011;66938;52.084;5.228;2023-02-24T10:36:04;15.3;;;6.3;;
77748;SDS011;66938;52.084;5.228;2023-02-24T10:37:45;18.61;;;6.7;;
77748;SDS011;66938;52.084;5.228;2023-02-24T10:39:23;18.61;;;6.7;;
77748;SDS011;66938;52.084;5.228;2023-02-24T10:41:00;16.9;;;5.9;;
77748;SDS011;66938;52.084;5.228;2023-02-24T10:44:19;18.91;;;6.5;;
77748;SDS011;66938;52.084;5.228;2023-02-24T10:45:57;15.5;;;5.6;;
77748;SDS011;66938;52.084;5.228;2023-02-24T10:47:36;19.0;;;6.5;;
77748;SDS011;66938;52.084;5.228;2023-02-24T10:49:13;13.0;;;6.2;;
77748;SDS011;66938;52.084;5.228;2023-02-24T10:52:31;15.5;;;6.1;;
77748;SDS011;66938;52.084;5.228;2023-02-24T10:54:12;17.7;;;6.0;;
77748;SDS011;66938;52.084;5.228;2023-02-24T10:55:54;17.7;;;6.0;;
77748;SDS011;66938;52.084;5.228;2023-02-24T10:57:40;16.4;;;6.0;;
77748;SDS011;66938;52.084;5.228;2023-02-24T11:00:55;13.9;;;5.9;;
77748;SDS011;66938;52.084;5.228;2023-02-24T11:02:45;14.5;;;5.8;;
77748;SDS011;66938;52.084;5.228;2023-02-24T11:04:29;13.4;;;5.5;;
77748;SDS011;66938;52.084;5.228;2023-02-24T11:06:19;13.3;;;6.2;;
77748;SDS011;66938;52.084;5.228;2023-02-24T11:08:04;12.9;;;6.1;;
77748;SDS011;66938;52.084;5.228;2023-02-24T11:11:49;15.0;;;6.1;;
77748;SDS011;66938;52.084;5.228;2023-02-24T11:13:25;11.6;;;5.3;;
77748;SDS011;66938;52.084;5.228;2023-02-24T11:15:02;11.1;;;5.5;;
77748;SDS011;66938;52.084;5.228;2023-02-24T11:16:50;9.9;;;5.2;;
77748;SDS011;66938;52.084;5.228;2023-02-24T11:18:29;10.9;;;5.5;;
77748;SDS011;66938;52.084;5.228;2023-02-24T11:21:58;12.6;;;7.5;;
77748;SDS011;66938;52.084;5.228;2023-02-24T11:23:38;11.4;;;6.6;;
77748;SDS011;66938;52.084;5.228;2023-02-24T11:25:18;12.0;;;6.9;;
77748;SDS011;66938;52.084;5.228;2023-02-24T11:26:58;10.4;;;6.7;;
77748;SDS011;66938;52.084;5.228;2023-02-24T11:30:28;10.4;;;6.5;;
77748;SDS011;66938;52.084;5.228;2023-02-24T11:32:22;10.0;;;6.7;;
77748;SDS011;66938;52.084;5.228;2023-02-24T11:34:13;11.2;;;7.3;;
77748;SDS011;66938;52.084;5.228;2023-02-24T11:35:58;10.21;;;6.9;;
77748;SDS011;66938;52.084;5.228;2023-02-24T11:37:41;10.4;;;7.5;;
77748;SDS011;66938;52.084;5.228;2023-02-24T11:39:41;9.0;;;6.4;;
77748;SDS011;66938;52.084;5.228;2023-02-24T11:41:26;9.0;;;7.0;;
77748;SDS011;66938;52.084;5.228;2023-02-24T11:44:50;9.21;;;7.2;;
77748;SDS011;66938;52.084;5.228;2023-02-24T11:46:35;10.6;;;9.21;;
77748;SDS011;66938;52.084;5.228;2023-02-24T11:48:16;9.31;;;7.7;;
77748;SDS011;66938;52.084;5.228;2023-02-24T11:50:04;9.1;;;7.8;;
77748;SDS011;66938;52.084;5.228;2023-02-24T11:51:57;8.71;;;7.8;;
77748;SDS011;66938;52.084;5.228;2023-02-24T11:55:23;10.0;;;8.81;;
77748;SDS011;66938;52.084;5.228;2023-02-24T11:57:10;9.5;;;8.2;;
77748;SDS011;66938;52.084;5.228;2023-02-24T11:58:52;10.1;;;9.0;;
77748;SDS011;66938;52.084;5.228;2023-02-24T12:00:35;11.7;;;9.6;;
77748;SDS011;66938;52.084;5.228;2023-02-24T12:04:12;11.4;;;9.21;;
77748;SDS011;66938;52.084;5.228;2023-02-24T12:05:55;10.5;;;8.31;;
77748;SDS011;66938;52.084;5.228;2023-02-24T12:07:44;15.4;;;10.21;;
77748;SDS011;66938;52.084;5.228;2023-02-24T12:09:27;12.7;;;9.4;;
77748;SDS011;66938;52.084;5.228;2023-02-24T12:11:10;15.9;;;9.9;;
77748;SDS011;66938;52.084;5.228;2023-02-24T12:12:54;14.0;;;9.6;;
77748;SDS011;66938;52.084;5.228;2023-02-24T12:16:23;20.41;;;11.2;;
77748;SDS011;66938;52.084;5.228;2023-02-24T12:18:05;22.2;;;11.3;;
77748;SDS011;66938;52.084;5.228;2023-02-24T12:19:53;19.5;;;10.7;;
77748;SDS011;66938;52.084;5.228;2023-02-24T12:21:35;20.6;;;11.5;;
77748;SDS011;66938;52.084;5.228;2023-02-24T12:23:16;18.11;;;11.5;;
77748;SDS011;66938;52.084;5.228;2023-02-24T12:26:34;18.61;;;10.5;;
77748;SDS011;66938;52.084;5.228;2023-02-24T12:28:22;21.1;;;10.6;;
77748;SDS011;66938;52.084;5.228;2023-02-24T12:30:24;23.0;;;10.5;;
77748;SDS011;66938;52.084;5.228;2023-02-24T12:32:39;21.5;;;10.21;;
77748;SDS011;66938;52.084;5.228;2023-02-24T12:34:35;21.4;;;9.81;;
77748;SDS011;66938;52.084;5.228;2023-02-24T12:36:24;21.6;;;9.81;;
77748;SDS011;66938;52.084;5.228;2023-02-24T12:38:17;21.6;;;9.81;;
77748;SDS011;66938;52.084;5.228;2023-02-24T12:40:14;22.6;;;9.5;;
77748;SDS011;66938;52.084;5.228;2023-02-24T12:43:49;21.7;;;9.1;;
77748;SDS011;66938;52.084;5.228;2023-02-24T12:45:36;24.5;;;9.1;;
77748;SDS011;66938;52.084;5.228;2023-02-24T12:47:23;26.9;;;8.9;;
77748;SDS011;66938;52.084;5.228;2023-02-24T12:49:14;29.2;;;9.1;;
77748;SDS011;66938;52.084;5.228;2023-02-24T12:51:11;26.3;;;8.31;;
77748;SDS011;66938;52.084;5.228;2023-02-24T12:52:59;27.0;;;8.0;;
77748;SDS011;66938;52.084;5.228;2023-02-24T12:54:45;28.0;;;8.2;;
77748;SDS011;66938;52.084;5.228;2023-02-24T12:58:18;31.0;;;8.4;;
77748;SDS011;66938;52.084;5.228;2023-02-24T13:00:00;29.9;;;8.5;;